createdAt,value
2022-10-30T00:00:56.199Z,10.27
2022-10-30T00:03:23.936Z,11.05
2022-10-30T00:05:52.700Z,10.30
2022-10-30T00:08:24.269Z,10.40
2022-10-30T00:10:52.377Z,10.05
2022-10-30T00:13:26.765Z,9.70
2022-10-30T00:16:04.890Z,9.68
2022-10-30T00:18:35.176Z,10.40
2022-10-30T00:21:10.433Z,10.23
2022-10-30T00:23:46.664Z,9.70
2022-10-30T00:26:17.172Z,10.05
2022-10-30T00:28:54.349Z,9.98
2022-10-30T00:31:25.006Z,10.05
2022-10-30T00:33:54.155Z,9.20
2022-10-30T00:36:24.958Z,9.60
2022-10-30T00:38:52.672Z,9.55
2022-10-30T00:41:25.360Z,10.20
2022-10-30T00:43:56.055Z,9.77
2022-10-30T00:46:45.315Z,10.23
2022-10-30T00:49:21.074Z,10.60
2022-10-30T00:51:53.517Z,10.43
2022-10-30T00:54:22.797Z,10.30
2022-10-30T00:56:52.490Z,10.77
2022-10-30T00:59:30.097Z,9.47
2022-10-30T01:02:03.056Z,9.80
2022-10-30T01:04:33.844Z,9.95
2022-10-30T01:07:09.777Z,10.05
2022-10-30T01:09:39.118Z,10.20
2022-10-30T01:12:06.447Z,9.80
2022-10-30T01:14:39.025Z,9.38
2022-10-30T01:17:16.929Z,9.88
2022-10-30T01:20:13.219Z,10.35
2022-10-30T01:22:53.353Z,9.88
2022-10-30T01:25:47.454Z,9.35
2022-10-30T01:28:51.353Z,9.35
2022-10-30T01:31:57.092Z,10.18
2022-10-30T01:37:27.936Z,9.88
2022-10-30T01:39:55.544Z,9.90
2022-10-30T01:42:46.641Z,10.10
2022-10-30T01:45:22.357Z,9.82
2022-10-30T01:48:14.197Z,10.02
2022-10-30T01:51:11.041Z,9.98
2022-10-30T01:53:59.317Z,9.90
2022-10-30T01:56:57.172Z,9.80
2022-10-30T01:59:32.141Z,9.75
2022-10-30T02:01:59.286Z,10.18
2022-10-30T02:04:27.093Z,9.40
2022-10-30T02:06:54.106Z,9.68
2022-10-30T02:09:21.099Z,9.55
2022-10-30T02:11:52.382Z,9.82
2022-10-30T02:14:29.845Z,10.40
2022-10-30T02:16:58.773Z,9.23
2022-10-30T02:19:25.511Z,9.95
2022-10-30T02:21:53.831Z,9.48
2022-10-30T02:24:20.870Z,9.75
2022-10-30T02:26:48.044Z,9.45
2022-10-30T02:29:14.807Z,9.75
2022-10-30T02:31:42.008Z,10.43
2022-10-30T02:34:08.756Z,11.05
2022-10-30T02:36:35.514Z,9.40
2022-10-30T02:39:02.307Z,10.68
2022-10-30T02:41:29.367Z,10.25
2022-10-30T02:43:56.384Z,10.20
2022-10-30T02:46:23.175Z,10.07
2022-10-30T02:48:50.049Z,10.25
2022-10-30T02:51:17.215Z,9.75
2022-10-30T02:53:45.322Z,9.77
2022-10-30T02:56:13.595Z,9.18
2022-10-30T02:58:43.736Z,9.98
2022-10-30T03:01:19.312Z,9.20
2022-10-30T03:03:47.164Z,9.23
2022-10-30T03:06:16.753Z,9.57
2022-10-30T03:08:44.466Z,9.02
2022-10-30T03:11:14.967Z,9.30
2022-10-30T03:13:43.150Z,8.75
2022-10-30T03:16:16.045Z,9.50
2022-10-30T03:18:43.729Z,8.82
2022-10-30T03:21:14.239Z,8.90
2022-10-30T03:23:41.075Z,9.30
2022-10-30T03:26:07.889Z,9.50
2022-10-30T03:28:47.351Z,8.85
2022-10-30T03:31:16.983Z,9.63
2022-10-30T03:33:44.258Z,9.27
2022-10-30T03:36:13.693Z,9.27
2022-10-30T03:38:41.617Z,9.02
2022-10-30T03:41:10.240Z,9.15
2022-10-30T03:43:37.203Z,9.60
2022-10-30T03:46:05.031Z,9.50
2022-10-30T03:48:32.688Z,9.45
2022-10-30T03:51:00.006Z,9.07
2022-10-30T03:53:29.143Z,9.48
2022-10-30T03:56:05.357Z,9.98
2022-10-30T03:58:41.559Z,9.23
2022-10-30T04:01:11.662Z,9.20
2022-10-30T04:03:44.376Z,9.57
2022-10-30T04:06:12.195Z,9.43
2022-10-30T04:08:39.028Z,8.70
2022-10-30T04:11:06.104Z,8.23
2022-10-30T04:13:32.965Z,9.05
2022-10-30T04:16:00.988Z,8.90
2022-10-30T04:18:28.149Z,9.10
2022-10-30T04:20:55.207Z,8.70
2022-10-30T04:23:23.003Z,9.50
2022-10-30T04:25:49.787Z,9.35
2022-10-30T04:28:17.421Z,9.35
2022-10-30T04:30:45.846Z,9.18
2022-10-30T04:33:14.894Z,8.82
2022-10-30T04:35:42.610Z,9.05
2022-10-30T04:38:14.741Z,9.40
2022-10-30T04:40:43.732Z,9.90
2022-10-30T04:43:13.021Z,9.27
2022-10-30T04:45:40.864Z,9.60
2022-10-30T04:48:11.497Z,9.25
2022-10-30T04:50:38.956Z,9.38
2022-10-30T04:53:12.042Z,9.32
2022-10-30T04:55:38.846Z,9.73
2022-10-30T04:58:07.973Z,10.00
2022-10-30T05:00:37.510Z,9.95
2022-10-30T05:03:19.781Z,9.98
2022-10-30T05:06:07.989Z,9.48
2022-10-30T05:08:34.728Z,9.80
2022-10-30T05:11:10.512Z,9.60
2022-10-30T05:13:37.319Z,10.15
2022-10-30T05:16:04.423Z,9.30
2022-10-30T05:18:32.030Z,9.38
2022-10-30T05:20:58.863Z,8.73
2022-10-30T05:23:25.801Z,9.18
2022-10-30T05:25:54.292Z,9.25
2022-10-30T05:28:21.046Z,9.38
2022-10-30T05:30:55.979Z,9.88
2022-10-30T05:34:03.140Z,9.70
2022-10-30T05:36:33.401Z,10.27
2022-10-30T05:39:02.955Z,9.90
2022-10-30T05:41:36.431Z,9.15
2022-10-30T05:44:03.688Z,9.48
2022-10-30T05:46:31.563Z,9.63
2022-10-30T05:49:07.349Z,9.85
2022-10-30T05:51:38.002Z,9.07
2022-10-30T05:54:08.637Z,9.60
2022-10-30T05:56:39.912Z,8.50
2022-10-30T05:59:07.380Z,8.63
2022-10-30T06:01:34.348Z,8.77
2022-10-30T06:04:10.667Z,8.85
2022-10-30T06:06:37.428Z,8.93
2022-10-30T06:09:04.822Z,9.48
2022-10-30T06:11:54.989Z,8.82
2022-10-30T06:14:32.306Z,10.35
2022-10-30T06:16:59.647Z,9.88
2022-10-30T06:19:32.530Z,9.95
2022-10-30T06:22:19.533Z,10.82
2022-10-30T06:24:49.999Z,10.70
2022-10-30T06:27:29.582Z,10.80
2022-10-30T06:29:56.390Z,11.60
2022-10-30T06:32:23.181Z,11.35
2022-10-30T06:34:50.395Z,11.15
2022-10-30T06:37:18.233Z,10.05
2022-10-30T06:39:45.232Z,11.48
2022-10-30T06:42:50.606Z,10.93
2022-10-30T06:45:52.758Z,10.93
2022-10-30T06:48:19.625Z,11.43
2022-10-30T06:50:55.682Z,11.90
2022-10-30T06:53:23.558Z,11.38
2022-10-30T06:56:02.770Z,11.27
2022-10-30T06:58:58.035Z,11.88
2022-10-30T07:01:43.184Z,11.80
2022-10-30T07:04:17.647Z,12.50
2022-10-30T07:06:45.297Z,12.20
2022-10-30T07:09:12.238Z,11.57
2022-10-30T07:11:42.269Z,10.93
2022-10-30T07:14:22.321Z,10.63
2022-10-30T07:17:08.640Z,10.38
2022-10-30T07:19:36.204Z,9.70
2022-10-30T07:22:04.438Z,10.80
2022-10-30T07:24:32.961Z,11.10
2022-10-30T07:27:18.359Z,10.80
2022-10-30T07:29:53.535Z,10.90
2022-10-30T07:32:24.193Z,10.25
2022-10-30T07:35:13.171Z,10.40
2022-10-30T07:37:55.825Z,10.43
2022-10-30T07:40:34.880Z,11.65
2022-10-30T07:43:36.673Z,11.10
2022-10-30T07:46:21.889Z,10.32
2022-10-30T07:49:18.119Z,10.70
2022-10-30T07:51:50.101Z,10.50
2022-10-30T07:54:21.900Z,10.73
2022-10-30T07:56:50.317Z,10.38
2022-10-30T07:59:35.617Z,10.40
2022-10-30T08:02:24.008Z,10.73
2022-10-30T08:05:10.619Z,10.32
2022-10-30T08:08:00.208Z,10.17
2022-10-30T08:10:27.551Z,10.55
2022-10-30T08:12:54.565Z,10.60
2022-10-30T08:15:22.215Z,10.43
2022-10-30T08:17:50.415Z,11.10
2022-10-30T08:20:20.791Z,10.38
2022-10-30T08:22:57.416Z,11.32
2022-10-30T08:25:30.259Z,10.65
2022-10-30T08:28:03.598Z,11.55
2022-10-30T08:30:36.604Z,10.60
2022-10-30T08:33:07.327Z,11.30
2022-10-30T08:35:56.725Z,10.88
2022-10-30T08:38:23.855Z,11.15
2022-10-30T08:41:03.065Z,11.48
2022-10-30T08:43:32.086Z,11.45
2022-10-30T08:46:01.951Z,10.68
2022-10-30T08:48:28.772Z,11.23
2022-10-30T08:50:59.752Z,12.00
2022-10-30T08:53:31.312Z,12.18
2022-10-30T08:55:58.512Z,11.25
2022-10-30T08:58:31.783Z,11.70
2022-10-30T09:01:01.753Z,12.38
2022-10-30T09:03:51.561Z,12.30
2022-10-30T09:06:44.212Z,12.07
2022-10-30T09:09:37.183Z,11.75
2022-10-30T09:12:05.405Z,11.35
2022-10-30T09:14:39.206Z,12.20
2022-10-30T09:17:08.583Z,11.60
2022-10-30T09:19:37.260Z,11.50
2022-10-30T09:22:05.313Z,11.50
2022-10-30T09:24:33.753Z,10.60
2022-10-30T09:27:19.131Z,10.88
2022-10-30T09:29:49.129Z,10.00
2022-10-30T09:32:22.108Z,10.27
2022-10-30T09:34:54.688Z,10.88
2022-10-30T09:37:25.097Z,10.57
2022-10-30T09:42:45.158Z,10.73
2022-10-30T09:45:32.198Z,11.40
2022-10-30T09:48:44.519Z,11.95
2022-10-30T09:51:49.326Z,11.68
2022-10-30T09:54:54.781Z,11.93
2022-10-30T09:57:52.206Z,11.50
2022-10-30T10:00:22.801Z,11.20
2022-10-30T10:03:16.227Z,11.73
2022-10-30T10:06:05.534Z,11.40
2022-10-30T10:09:29.989Z,11.40
2022-10-30T10:12:34.248Z,11.27
2022-10-30T10:15:07.909Z,10.93
2022-10-30T10:17:39.287Z,11.35
2022-10-30T10:20:20.843Z,11.07
2022-10-30T10:22:51.250Z,11.80
2022-10-30T10:25:20.587Z,11.80
2022-10-30T10:27:53.496Z,12.02
2022-10-30T10:30:22.854Z,11.30
2022-10-30T10:33:00.952Z,11.63
2022-10-30T10:35:40.035Z,11.85
2022-10-30T10:38:24.705Z,12.07
2022-10-30T10:41:07.850Z,12.10
2022-10-30T10:43:53.425Z,12.40
2022-10-30T10:46:28.935Z,11.88
2022-10-30T10:49:20.053Z,11.73
2022-10-30T10:52:07.445Z,11.57
2022-10-30T10:54:42.173Z,12.10
2022-10-30T10:57:16.739Z,11.70
2022-10-30T10:59:50.539Z,11.70
2022-10-30T11:02:46.219Z,11.50
2022-10-30T11:05:25.137Z,12.32
2022-10-30T11:07:53.117Z,11.13
2022-10-30T11:10:21.269Z,11.80
2022-10-30T11:12:48.177Z,11.07
2022-10-30T11:15:38.077Z,14.32
2022-10-30T11:18:08.776Z,11.70
2022-10-30T11:20:53.862Z,11.05
2022-10-30T11:23:43.163Z,11.63
2022-10-30T11:26:18.905Z,10.88
2022-10-30T11:29:04.300Z,11.20
2022-10-30T11:31:40.580Z,11.35
2022-10-30T11:34:17.636Z,10.57
2022-10-30T11:36:44.886Z,10.48
2022-10-30T11:39:17.950Z,10.50
2022-10-30T11:42:00.238Z,11.13
2022-10-30T11:44:31.863Z,10.52
2022-10-30T11:46:58.940Z,10.75
2022-10-30T11:49:52.671Z,10.80
2022-10-30T11:52:23.040Z,10.55
2022-10-30T11:55:00.650Z,10.80
2022-10-30T11:57:37.328Z,11.02
2022-10-30T12:00:15.381Z,10.18
2022-10-30T12:02:44.499Z,10.32
2022-10-30T12:05:49.397Z,10.60
2022-10-30T12:08:20.895Z,10.00
2022-10-30T12:10:57.499Z,10.68
2022-10-30T12:13:27.047Z,9.98
2022-10-30T12:16:18.760Z,9.68
2022-10-30T12:19:03.132Z,10.07
2022-10-30T12:21:40.387Z,9.60
2022-10-30T12:24:18.783Z,9.57
2022-10-30T12:26:53.164Z,9.43
2022-10-30T12:29:36.444Z,9.75
2022-10-30T12:32:19.306Z,9.57
2022-10-30T12:34:57.753Z,9.45
2022-10-30T12:37:29.518Z,9.25
2022-10-30T12:40:05.378Z,10.13
2022-10-30T12:42:37.289Z,9.57
2022-10-30T12:45:30.735Z,9.23
2022-10-30T12:48:22.876Z,9.30
2022-10-30T12:51:08.185Z,9.10
2022-10-30T12:53:44.700Z,9.55
2022-10-30T12:56:22.105Z,9.55
2022-10-30T12:59:21.156Z,9.18
2022-10-30T13:02:05.034Z,9.93
2022-10-30T13:04:46.197Z,9.77
2022-10-30T13:07:31.996Z,9.20
2022-10-30T13:09:58.650Z,9.82
2022-10-30T13:12:32.410Z,9.07
2022-10-30T13:15:22.872Z,9.10
2022-10-30T13:17:49.845Z,10.15
2022-10-30T13:20:17.246Z,9.05
2022-10-30T13:22:49.262Z,9.88
2022-10-30T13:25:22.208Z,9.35
2022-10-30T13:27:55.443Z,9.23
2022-10-30T13:30:25.618Z,9.80
2022-10-30T13:33:07.958Z,9.60
2022-10-30T13:35:44.126Z,9.50
2022-10-30T13:38:31.231Z,9.48
2022-10-30T13:41:16.237Z,9.55
2022-10-30T13:44:04.420Z,9.90
2022-10-30T13:46:54.462Z,9.95
2022-10-30T13:49:33.608Z,9.55
2022-10-30T13:52:20.986Z,9.88
2022-10-30T13:55:02.562Z,9.20
2022-10-30T13:57:47.456Z,9.30
2022-10-30T14:00:23.603Z,9.27
2022-10-30T14:03:11.876Z,9.50
2022-10-30T14:06:02.995Z,9.50
2022-10-30T14:08:57.209Z,9.55
2022-10-30T14:11:23.975Z,9.77
2022-10-30T14:13:55.379Z,9.90
2022-10-30T14:16:40.102Z,9.45
2022-10-30T14:19:11.658Z,9.85
2022-10-30T14:21:42.662Z,9.90
2022-10-30T14:24:09.508Z,10.43
2022-10-30T14:26:36.553Z,10.60
2022-10-30T14:29:29.019Z,9.52
2022-10-30T14:31:55.910Z,9.50
2022-10-30T14:34:41.345Z,12.20
2022-10-30T14:37:08.733Z,10.02
2022-10-30T14:39:43.412Z,10.63
2022-10-30T14:42:13.285Z,10.60
2022-10-30T14:45:16.097Z,11.00
2022-10-30T14:47:52.275Z,10.25
2022-10-30T14:50:30.363Z,10.15
2022-10-30T14:53:20.218Z,10.63
2022-10-30T14:56:07.113Z,10.87
2022-10-30T14:58:36.889Z,10.57
2022-10-30T15:01:03.681Z,10.60
2022-10-30T15:03:39.398Z,10.75
2022-10-30T15:06:31.610Z,10.20
2022-10-30T15:09:01.257Z,9.90
2022-10-30T15:11:27.962Z,9.65
2022-10-30T15:14:03.316Z,10.52
2022-10-30T15:16:30.861Z,9.85
2022-10-30T15:19:03.128Z,9.98
2022-10-30T15:21:33.793Z,10.35
2022-10-30T15:26:35.720Z,10.27
2022-10-30T15:29:04.336Z,9.75
2022-10-30T15:31:31.219Z,8.98
2022-10-30T15:33:58.213Z,9.52
2022-10-30T15:36:35.255Z,11.07
2022-10-30T15:39:13.164Z,9.65
2022-10-30T15:41:47.250Z,10.20
2022-10-30T15:44:18.216Z,9.90
2022-10-30T15:47:47.828Z,9.77
2022-10-30T15:50:16.795Z,10.35
2022-10-30T15:52:44.181Z,10.32
2022-10-30T15:55:17.138Z,9.82
2022-10-30T15:58:03.337Z,9.98
2022-10-30T16:00:34.547Z,8.40
2022-10-30T16:03:17.995Z,9.02
2022-10-30T16:05:44.919Z,9.15
2022-10-30T16:08:19.977Z,8.98
2022-10-30T16:10:47.458Z,8.63
2022-10-30T16:13:19.939Z,8.70
2022-10-30T16:15:47.743Z,9.10
2022-10-30T16:18:26.921Z,9.25
2022-10-30T16:21:18.775Z,9.20
2022-10-30T16:23:55.617Z,8.90
2022-10-30T16:26:24.779Z,8.60
2022-10-30T16:28:51.737Z,8.15
2022-10-30T16:31:20.403Z,8.30
2022-10-30T16:33:48.803Z,8.38
2022-10-30T16:36:18.231Z,8.15
2022-10-30T16:38:47.741Z,9.00
2022-10-30T16:41:14.885Z,8.77
2022-10-30T16:43:48.398Z,9.45
2022-10-30T16:46:15.130Z,8.90
2022-10-30T16:49:17.296Z,9.25
2022-10-30T16:51:44.317Z,8.55
2022-10-30T16:54:24.921Z,9.40
2022-10-30T16:56:55.637Z,8.85
2022-10-30T16:59:48.321Z,8.20
2022-10-30T17:02:19.592Z,8.55
2022-10-30T17:04:52.481Z,8.00
2022-10-30T17:07:25.418Z,9.05
2022-10-30T17:09:54.171Z,7.93
2022-10-30T17:12:25.369Z,8.38
2022-10-30T17:14:56.113Z,9.80
2022-10-30T17:20:00.712Z,9.18
2022-10-30T17:22:28.392Z,8.50
2022-10-30T17:24:55.802Z,8.75
2022-10-30T17:27:47.541Z,8.60
2022-10-30T17:30:36.044Z,8.80
2022-10-30T17:33:24.345Z,9.02
2022-10-30T17:38:24.001Z,7.70
2022-10-30T17:40:50.919Z,8.88
2022-10-30T17:43:17.729Z,8.20
2022-10-30T17:45:44.985Z,8.55
2022-10-30T17:48:14.361Z,8.52
2022-10-30T17:50:42.120Z,8.90
2022-10-30T17:53:21.860Z,8.23
2022-10-30T17:55:56.942Z,9.02
2022-10-30T17:58:23.751Z,8.90
2022-10-30T18:00:50.601Z,8.25
2022-10-30T18:03:17.454Z,9.50
2022-10-30T18:05:46.002Z,9.73
2022-10-30T18:08:12.727Z,9.25
2022-10-30T18:10:39.487Z,9.45
2022-10-30T18:13:06.246Z,9.60
2022-10-30T18:15:39.264Z,9.35
2022-10-30T18:18:06.306Z,8.93
2022-10-30T18:20:33.874Z,9.40
2022-10-30T18:23:01.969Z,9.15
2022-10-30T18:25:36.039Z,9.25
2022-10-30T18:28:03.032Z,8.82
2022-10-30T18:30:30.521Z,9.30
2022-10-30T18:32:57.694Z,8.55
2022-10-30T18:35:36.239Z,8.90
2022-10-30T18:38:04.605Z,8.30
2022-10-30T18:40:32.366Z,8.60
2022-10-30T18:42:59.382Z,8.65
2022-10-30T18:45:35.527Z,8.25
2022-10-30T18:48:02.883Z,8.77
2022-10-30T18:50:30.934Z,8.65
2022-10-30T18:52:59.069Z,8.60
2022-10-30T18:55:33.905Z,8.43
2022-10-30T18:58:01.850Z,8.63
2022-10-30T19:00:39.708Z,8.40
2022-10-30T19:03:17.138Z,8.18
2022-10-30T19:05:46.770Z,8.52
2022-10-30T19:08:13.925Z,8.65
2022-10-30T19:10:46.007Z,7.40
2022-10-30T19:13:21.018Z,7.95
2022-10-30T19:15:59.047Z,8.55
2022-10-30T19:18:28.527Z,7.85
2022-10-30T19:21:04.341Z,8.40
2022-10-30T19:23:33.548Z,8.00
2022-10-30T19:26:00.433Z,7.82
2022-10-30T19:28:27.357Z,8.70
2022-10-30T19:30:54.901Z,13.00
2022-10-30T19:33:23.429Z,8.50
2022-10-30T19:36:02.055Z,9.20
2022-10-30T19:38:30.207Z,9.05
2022-10-30T19:40:57.227Z,8.65
2022-10-30T19:43:24.855Z,8.50
2022-10-30T19:45:59.272Z,8.68
2022-10-30T19:48:56.820Z,8.13
2022-10-30T19:51:13.347Z,7.95
2022-10-30T19:53:40.808Z,7.65
2022-10-30T19:56:10.821Z,7.22
2022-10-30T19:58:37.642Z,7.87
2022-10-30T20:01:07.861Z,7.80
2022-10-30T20:03:35.176Z,7.65
2022-10-30T20:06:02.025Z,7.60
2022-10-30T20:08:28.891Z,7.90
2022-10-30T20:10:58.212Z,7.93
2022-10-30T20:13:26.641Z,8.25
2022-10-30T20:15:54.643Z,8.48
2022-10-30T20:18:24.345Z,8.65
2022-10-30T20:20:53.809Z,8.32
2022-10-30T20:23:21.961Z,8.18
2022-10-30T20:25:50.851Z,8.40
2022-10-30T20:28:40.455Z,8.48
2022-10-30T20:31:10.955Z,8.77
2022-10-30T20:33:38.176Z,8.20
2022-10-30T20:36:05.586Z,8.40
2022-10-30T20:38:33.839Z,8.10
2022-10-30T20:41:02.688Z,8.40
2022-10-30T20:43:38.713Z,8.50
2022-10-30T20:46:10.250Z,8.27
2022-10-30T20:48:38.183Z,8.70
2022-10-30T20:51:07.278Z,8.18
2022-10-30T20:53:34.611Z,8.48
2022-10-30T20:56:04.979Z,8.15
2022-10-30T20:58:31.771Z,8.65
2022-10-30T21:01:00.777Z,7.97
2022-10-30T21:03:27.953Z,8.07
2022-10-30T21:05:57.667Z,9.27
2022-10-30T21:08:25.252Z,8.77
2022-10-30T21:10:52.178Z,8.38
2022-10-30T21:13:18.972Z,8.32
2022-10-30T21:15:45.785Z,8.73
2022-10-30T21:18:13.226Z,8.73
2022-10-30T21:20:41.269Z,8.60
2022-10-30T21:23:08.595Z,7.78
2022-10-30T21:25:35.884Z,8.80
2022-10-30T21:28:03.254Z,7.75
2022-10-30T21:30:30.146Z,8.38
2022-10-30T21:32:59.187Z,7.93
2022-10-30T21:35:27.140Z,7.40
2022-10-30T21:37:54.181Z,7.55
2022-10-30T21:40:21.228Z,7.80
2022-10-30T21:42:48.688Z,8.15
2022-10-30T21:45:15.576Z,8.05
2022-10-30T21:47:42.355Z,7.63
2022-10-30T21:50:12.352Z,8.05
2022-10-30T21:52:40.408Z,7.10
2022-10-30T21:55:08.042Z,7.40
2022-10-30T21:57:35.224Z,7.30
2022-10-30T22:00:05.728Z,7.53
2022-10-30T22:02:35.031Z,7.70
2022-10-30T22:05:01.807Z,7.32
2022-10-30T22:07:28.632Z,7.90
2022-10-30T22:09:55.418Z,8.30
2022-10-30T22:12:22.196Z,8.40
2022-10-30T22:14:48.968Z,8.77
2022-10-30T22:17:15.905Z,8.25
2022-10-30T22:19:42.665Z,8.30
2022-10-30T22:22:11.192Z,8.68
2022-10-30T22:24:38.109Z,8.65
2022-10-30T22:27:04.841Z,7.75
2022-10-30T22:29:31.760Z,8.15
2022-10-30T22:31:58.498Z,8.13
2022-10-30T22:34:25.288Z,8.23
2022-10-30T22:36:52.025Z,7.85
2022-10-30T22:39:18.831Z,7.60
2022-10-30T22:41:45.601Z,7.68
2022-10-30T22:44:14.504Z,7.97
2022-10-30T22:46:41.444Z,8.20
2022-10-30T22:49:08.736Z,8.25
2022-10-30T22:51:37.199Z,8.75
2022-10-30T22:54:06.447Z,8.15
2022-10-30T22:56:35.569Z,8.43
2022-10-30T22:59:15.286Z,8.00
2022-10-30T23:01:42.900Z,8.45
2022-10-30T23:04:12.029Z,8.13
2022-10-30T23:06:38.768Z,8.27
2022-10-30T23:09:09.057Z,8.68
2022-10-30T23:11:36.226Z,9.40
2022-10-30T23:14:03.874Z,9.10
2022-10-30T23:16:30.828Z,8.95
2022-10-30T23:19:00.202Z,10.15
2022-10-30T23:21:29.004Z,9.32
2022-10-30T23:23:56.506Z,9.23
2022-10-30T23:26:29.813Z,9.55
2022-10-30T23:28:57.583Z,8.77
2022-10-30T23:31:39.539Z,9.10
2022-10-30T23:34:14.970Z,9.43
2022-10-30T23:36:43.308Z,9.10
2022-10-30T23:39:15.144Z,8.90
2022-10-30T23:41:41.925Z,9.00
2022-10-30T23:44:12.542Z,8.70
2022-10-30T23:46:40.001Z,8.70
2022-10-30T23:49:07.639Z,8.75
2022-10-30T23:51:36.307Z,8.85
2022-10-30T23:54:04.671Z,8.63
2022-10-30T23:56:32.398Z,8.90
2022-10-30T23:58:59.377Z,8.65
